Arequipa, Peru
Current Conditions -  °F | °C
As of 4:00 AM on Monday 24 Nov 2014 (Local Time) from SPQU Reporting Station
Clear Clear  
Wind Chill: 50°   Ceiling: Unl
Heat Index: 50°   Visibility: 6mi
Dew Point: 16°   Wind: 3mph
Humidity: 26%   Direction: 70°ENE
Pressure: 30.24"   Gusts: NA
Location:  16.39°S, 71.53°W
Report Text: SPQU 240900Z 07003KT CAVOK 10/M09 Q1024 RMK PP000
Loading
Personal Weather Stations






























Interactive Weather Map New forecast layout! Learn more

10-Day Weather Forecast

Advertisements
Track Severe Weather on mobile